sensor_id;sensor_type;location;lat;lon;timestamp;pressure;altitude;pressure_sealevel;temperature;humidity
23953;BME280;12163;49.316;6.092;2022-09-09T00:04:33;98881.94;;;17.25;74.99
23953;BME280;12163;49.316;6.092;2022-09-09T00:09:31;98882.50;;;17.18;75.17
23953;BME280;12163;49.316;6.092;2022-09-09T00:12:18;98876.97;;;17.15;75.61
23953;BME280;12163;49.316;6.092;2022-09-09T00:14:58;98873.81;;;17.13;75.74
23953;BME280;12163;49.316;6.092;2022-09-09T00:17:59;98878.31;;;17.09;76.21
23953;BME280;12163;49.316;6.092;2022-09-09T00:20:47;98865.38;;;17.06;75.92
23953;BME280;12163;49.316;6.092;2022-09-09T00:23:23;98862.31;;;17.07;76.10
23953;BME280;12163;49.316;6.092;2022-09-09T00:26:14;98858.78;;;17.07;75.85
23953;BME280;12163;49.316;6.092;2022-09-09T00:28:50;98869.38;;;17.08;76.27
23953;BME280;12163;49.316;6.092;2022-09-09T00:31:23;98856.06;;;17.07;76.19
23953;BME280;12163;49.316;6.092;2022-09-09T00:33:52;98860.38;;;17.08;76.24
23953;BME280;12163;49.316;6.092;2022-09-09T00:36:22;98859.94;;;17.06;75.95
23953;BME280;12163;49.316;6.092;2022-09-09T00:38:56;98859.47;;;17.04;76.30
23953;BME280;12163;49.316;6.092;2022-09-09T00:49:43;98868.81;;;17.03;76.01
23953;BME280;12163;49.316;6.092;2022-09-09T00:57:28;98875.97;;;17.07;75.48
23953;BME280;12163;49.316;6.092;2022-09-09T01:11:01;98885.59;;;17.17;75.46
23953;BME280;12163;49.316;6.092;2022-09-09T01:13:31;98886.06;;;17.19;75.32
23953;BME280;12163;49.316;6.092;2022-09-09T01:16:02;98879.47;;;17.20;75.52
23953;BME280;12163;49.316;6.092;2022-09-09T01:18:34;98873.31;;;17.23;75.49
23953;BME280;12163;49.316;6.092;2022-09-09T01:21:32;98873.75;;;17.25;75.26
23953;BME280;12163;49.316;6.092;2022-09-09T01:26:52;98869.00;;;17.34;75.25
23953;BME280;12163;49.316;6.092;2022-09-09T01:29:21;98876.72;;;17.32;74.54
23953;BME280;12163;49.316;6.092;2022-09-09T01:32:01;98866.28;;;17.34;75.27
23953;BME280;12163;49.316;6.092;2022-09-09T01:34:37;98869.78;;;17.34;74.47
23953;BME280;12163;49.316;6.092;2022-09-09T01:39:35;98866.81;;;17.39;75.50
23953;BME280;12163;49.316;6.092;2022-09-09T01:42:05;98873.06;;;17.40;74.63
23953;BME280;12163;49.316;6.092;2022-09-09T01:44:34;98876.59;;;17.40;74.55
23953;BME280;12163;49.316;6.092;2022-09-09T01:47:03;98871.59;;;17.42;74.84
23953;BME280;12163;49.316;6.092;2022-09-09T01:49:29;98877.84;;;17.43;75.08
23953;BME280;12163;49.316;6.092;2022-09-09T01:51:56;98870.09;;;17.45;74.57
23953;BME280;12163;49.316;6.092;2022-09-09T01:54:26;98868.50;;;17.44;75.07
23953;BME280;12163;49.316;6.092;2022-09-09T02:02:13;98870.78;;;17.42;75.01
23953;BME280;12163;49.316;6.092;2022-09-09T02:04:52;98870.00;;;17.41;74.90
23953;BME280;12163;49.316;6.092;2022-09-09T02:07:40;98861.72;;;17.38;74.78
23953;BME280;12163;49.316;6.092;2022-09-09T02:12:41;98870.44;;;17.31;74.84
23953;BME280;12163;49.316;6.092;2022-09-09T02:15:17;98880.78;;;17.26;75.06
23953;BME280;12163;49.316;6.092;2022-09-09T02:17:46;98872.16;;;17.24;75.47
23953;BME280;12163;49.316;6.092;2022-09-09T02:20:14;98879.47;;;17.20;75.94
23953;BME280;12163;49.316;6.092;2022-09-09T02:22:43;98885.59;;;17.17;75.87
23953;BME280;12163;49.316;6.092;2022-09-09T02:25:13;98881.53;;;17.11;75.27
23953;BME280;12163;49.316;6.092;2022-09-09T02:27:43;98877.88;;;17.07;76.06
23953;BME280;12163;49.316;6.092;2022-09-09T02:30:12;98878.94;;;17.02;76.72
23953;BME280;12163;49.316;6.092;2022-09-09T02:32:40;98875.63;;;16.97;76.44
23953;BME280;12163;49.316;6.092;2022-09-09T02:35:12;98872.00;;;16.93;76.62
23953;BME280;12163;49.316;6.092;2022-09-09T02:37:42;98867.25;;;16.90;76.63
23953;BME280;12163;49.316;6.092;2022-09-09T02:40:13;98874.97;;;16.88;76.21
23953;BME280;12163;49.316;6.092;2022-09-09T02:42:43;98869.41;;;16.85;76.87
23953;BME280;12163;49.316;6.092;2022-09-09T02:45:16;98872.00;;;16.81;76.98
23953;BME280;12163;49.316;6.092;2022-09-09T02:47:50;98877.38;;;16.78;77.42
23953;BME280;12163;49.316;6.092;2022-09-09T02:53:56;98877.69;;;16.64;77.65
23953;BME280;12163;49.316;6.092;2022-09-09T02:56:27;98881.53;;;16.63;77.55
23953;BME280;12163;49.316;6.092;2022-09-09T02:58:56;98866.78;;;16.64;77.78
23953;BME280;12163;49.316;6.092;2022-09-09T03:01:23;98879.50;;;16.60;78.14
23953;BME280;12163;49.316;6.092;2022-09-09T03:03:50;98876.78;;;16.60;78.11
23953;BME280;12163;49.316;6.092;2022-09-09T03:06:16;98876.78;;;16.60;78.46
23953;BME280;12163;49.316;6.092;2022-09-09T03:08:43;98877.47;;;16.57;78.25
23953;BME280;12163;49.316;6.092;2022-09-09T03:11:15;98873.50;;;16.55;78.66
23953;BME280;12163;49.316;6.092;2022-09-09T03:13:42;98872.69;;;16.54;78.29
23953;BME280;12163;49.316;6.092;2022-09-09T03:16:08;98874.63;;;16.54;78.93
23953;BME280;12163;49.316;6.092;2022-09-09T03:18:35;98872.69;;;16.54;79.14
23953;BME280;12163;49.316;6.092;2022-09-09T03:21:02;98873.50;;;16.55;79.34
23953;BME280;12163;49.316;6.092;2022-09-09T03:23:28;98864.97;;;16.56;79.60
23953;BME280;12163;49.316;6.092;2022-09-09T03:25:55;98868.84;;;16.55;79.05
23953;BME280;12163;49.316;6.092;2022-09-09T03:28:23;98872.69;;;16.54;79.79
23953;BME280;12163;49.316;6.092;2022-09-09T03:30:51;98861.34;;;16.52;79.54
23953;BME280;12163;49.316;6.092;2022-09-09T03:33:18;98868.72;;;16.52;79.22
23953;BME280;12163;49.316;6.092;2022-09-09T03:35:46;98863.94;;;16.49;79.25
23953;BME280;12163;49.316;6.092;2022-09-09T03:38:15;98864.63;;;16.46;79.75
23953;BME280;12163;49.316;6.092;2022-09-09T03:40:53;98863.84;;;16.45;79.55
23953;BME280;12163;49.316;6.092;2022-09-09T03:43:22;98877.91;;;16.47;80.25
23953;BME280;12163;49.316;6.092;2022-09-09T03:45:49;98874.75;;;16.45;79.85
23953;BME280;12163;49.316;6.092;2022-09-09T03:48:16;98872.34;;;16.44;79.52
23953;BME280;12163;49.316;6.092;2022-09-09T03:50:48;98874.28;;;16.43;79.67
23953;BME280;12163;49.316;6.092;2022-09-09T03:53:16;98871.09;;;16.41;80.16
23953;BME280;12163;49.316;6.092;2022-09-09T03:55:45;98879.25;;;16.41;79.76
23953;BME280;12163;49.316;6.092;2022-09-09T04:01:53;98879.03;;;16.34;79.96
23953;BME280;12163;49.316;6.092;2022-09-09T04:04:20;98873.41;;;16.31;79.83
23953;BME280;12163;49.316;6.092;2022-09-09T04:06:46;98883.53;;;16.30;80.29
23953;BME280;12163;49.316;6.092;2022-09-09T04:09:14;98877.28;;;16.30;79.77
23953;BME280;12163;49.316;6.092;2022-09-09T04:11:41;98881.03;;;16.25;80.07
23953;BME280;12163;49.316;6.092;2022-09-09T04:14:07;98880.13;;;16.21;80.10
23953;BME280;12163;49.316;6.092;2022-09-09T04:16:35;98878.50;;;16.20;80.26
23953;BME280;12163;49.316;6.092;2022-09-09T04:19:04;98884.63;;;16.17;80.56
23953;BME280;12163;49.316;6.092;2022-09-09T04:21:30;98887.81;;;16.19;80.87
23953;BME280;12163;49.316;6.092;2022-09-09T04:23:57;98889.41;;;16.20;80.42
23953;BME280;12163;49.316;6.092;2022-09-09T04:26:24;98889.06;;;16.22;80.77
23953;BME280;12163;49.316;6.092;2022-09-09T04:28:51;98887.94;;;16.23;80.22
23953;BME280;12163;49.316;6.092;2022-09-09T04:31:19;98890.22;;;16.21;80.37
23953;BME280;12163;49.316;6.092;2022-09-09T04:33:49;98890.53;;;16.19;80.20
23953;BME280;12163;49.316;6.092;2022-09-09T04:36:17;98900.97;;;16.17;80.08
23953;BME280;12163;49.316;6.092;2022-09-09T04:38:45;98883.41;;;16.15;80.16
23953;BME280;12163;49.316;6.092;2022-09-09T04:41:12;98890.75;;;16.14;80.17
23953;BME280;12163;49.316;6.092;2022-09-09T04:43:39;98896.19;;;16.14;80.28
23953;BME280;12163;49.316;6.092;2022-09-09T04:46:06;98901.66;;;16.14;80.33
23953;BME280;12163;49.316;6.092;2022-09-09T04:48:33;98895.41;;;16.14;80.45
23953;BME280;12163;49.316;6.092;2022-09-09T04:51:03;98901.31;;;16.16;80.72
23953;BME280;12163;49.316;6.092;2022-09-09T04:53:31;98900.97;;;16.17;80.43
23953;BME280;12163;49.316;6.092;2022-09-09T04:56:08;98899.84;;;16.18;80.58
23953;BME280;12163;49.316;6.092;2022-09-09T04:58:37;98896.69;;;16.28;80.16
23953;BME280;12163;49.316;6.092;2022-09-09T05:01:09;98889.50;;;16.44;80.63
23953;BME280;12163;49.316;6.092;2022-09-09T05:03:36;98892.22;;;16.80;80.33
23953;BME280;12163;49.316;6.092;2022-09-09T05:06:04;98884.56;;;17.33;79.04
23953;BME280;12163;49.316;6.092;2022-09-09T05:08:31;98886.97;;;17.90;77.69
23953;BME280;12163;49.316;6.092;2022-09-09T05:10:58;98891.31;;;18.34;74.63
23953;BME280;12163;49.316;6.092;2022-09-09T05:13:26;98885.41;;;18.63;72.79
23953;BME280;12163;49.316;6.092;2022-09-09T05:15:54;98885.81;;;18.95;71.80
23953;BME280;12163;49.316;6.092;2022-09-09T05:18:21;98891.97;;;19.23;70.80
23953;BME280;12163;49.316;6.092;2022-09-09T05:20:49;98888.38;;;19.38;69.77
23953;BME280;12163;49.316;6.092;2022-09-09T05:23:17;98888.41;;;19.57;68.30
23953;BME280;12163;49.316;6.092;2022-09-09T05:25:43;98906.34;;;19.74;68.02
23953;BME280;12163;49.316;6.092;2022-09-09T05:28:12;98900.94;;;19.77;67.35
23953;BME280;12163;49.316;6.092;2022-09-09T05:30:38;98902.66;;;19.85;67.33
23953;BME280;12163;49.316;6.092;2022-09-09T05:33:05;98906.84;;;19.98;66.73
23953;BME280;12163;49.316;6.092;2022-09-09T05:35:32;98903.97;;;20.10;66.12
23953;BME280;12163;49.316;6.092;2022-09-09T05:37:59;98902.94;;;20.18;65.12
23953;BME280;12163;49.316;6.092;2022-09-09T05:40:26;98892.09;;;20.03;65.03
23953;BME280;12163;49.316;6.092;2022-09-09T05:42:53;98901.72;;;19.78;65.77
23953;BME280;12163;49.316;6.092;2022-09-09T05:45:19;98902.09;;;19.57;66.16
23953;BME280;12163;49.316;6.092;2022-09-09T05:47:51;98899.63;;;19.52;66.68
23953;BME280;12163;49.316;6.092;2022-09-09T05:50:19;98898.84;;;19.52;65.59
23953;BME280;12163;49.316;6.092;2022-09-09T05:52:45;98902.81;;;19.54;65.92
23953;BME280;12163;49.316;6.092;2022-09-09T05:55:12;98894.72;;;19.42;66.12
23953;BME280;12163;49.316;6.092;2022-09-09T05:57:39;98899.13;;;19.47;66.43
23953;BME280;12163;49.316;6.092;2022-09-09T06:00:06;98902.09;;;19.57;66.65
23953;BME280;12163;49.316;6.092;2022-09-09T06:02:32;98904.47;;;19.59;66.72
23953;BME280;12163;49.316;6.092;2022-09-09T06:04:59;98905.50;;;19.70;66.48
23953;BME280;12163;49.316;6.092;2022-09-09T06:07:26;98901.81;;;19.81;65.66
23953;BME280;12163;49.316;6.092;2022-09-09T06:09:52;98899.59;;;19.87;64.78
23953;BME280;12163;49.316;6.092;2022-09-09T06:12:19;98902.88;;;19.77;65.26
23953;BME280;12163;49.316;6.092;2022-09-09T06:14:47;98907.22;;;19.78;65.06
23953;BME280;12163;49.316;6.092;2022-09-09T06:17:13;98908.56;;;19.68;65.26
23953;BME280;12163;49.316;6.092;2022-09-09T06:19:40;98898.25;;;19.62;65.16
23953;BME280;12163;49.316;6.092;2022-09-09T06:22:06;98902.72;;;19.51;65.50
23953;BME280;12163;49.316;6.092;2022-09-09T06:24:33;98900.00;;;19.51;66.99
23953;BME280;12163;49.316;6.092;2022-09-09T06:26:59;98911.44;;;19.75;65.96
23953;BME280;12163;49.316;6.092;2022-09-09T06:29:26;98903.59;;;19.93;65.29
23953;BME280;12163;49.316;6.092;2022-09-09T06:31:53;98911.63;;;20.01;64.99
23953;BME280;12163;49.316;6.092;2022-09-09T06:34:19;98914.63;;;19.96;64.26
23953;BME280;12163;49.316;6.092;2022-09-09T06:36:47;98914.47;;;19.89;64.38
23953;BME280;12163;49.316;6.092;2022-09-09T06:39:13;98920.09;;;19.58;64.47
23953;BME280;12163;49.316;6.092;2022-09-09T06:41:42;98913.06;;;19.42;65.91
23953;BME280;12163;49.316;6.092;2022-09-09T06:44:09;98920.22;;;19.46;66.30
23953;BME280;12163;49.316;6.092;2022-09-09T06:46:38;98923.56;;;19.55;66.40
23953;BME280;12163;49.316;6.092;2022-09-09T06:49:07;98919.53;;;19.87;65.49
23953;BME280;12163;49.316;6.092;2022-09-09T06:51:36;98909.88;;;20.12;64.23
23953;BME280;12163;49.316;6.092;2022-09-09T06:54:10;98908.16;;;20.23;63.78
23953;BME280;12163;49.316;6.092;2022-09-09T06:56:39;98917.34;;;20.34;63.59
23953;BME280;12163;49.316;6.092;2022-09-09T06:59:10;98909.81;;;20.50;63.37
23953;BME280;12163;49.316;6.092;2022-09-09T07:01:42;98908.34;;;20.56;61.36
23953;BME280;12163;49.316;6.092;2022-09-09T07:04:10;98921.81;;;20.42;62.68
23953;BME280;12163;49.316;6.092;2022-09-09T07:06:42;98915.31;;;20.31;62.51
23953;BME280;12163;49.316;6.092;2022-09-09T07:09:14;98924.50;;;20.20;62.57
23953;BME280;12163;49.316;6.092;2022-09-09T07:11:43;98923.69;;;20.19;63.68
23953;BME280;12163;49.316;6.092;2022-09-09T07:14:10;98922.28;;;20.25;62.26
23953;BME280;12163;49.316;6.092;2022-09-09T07:16:41;98928.06;;;20.20;62.90
23953;BME280;12163;49.316;6.092;2022-09-09T07:19:09;98925.66;;;20.19;62.91
23953;BME280;12163;49.316;6.092;2022-09-09T07:21:37;98929.47;;;20.33;62.28
23953;BME280;12163;49.316;6.092;2022-09-09T07:24:03;98925.88;;;20.10;62.36
23953;BME280;12163;49.316;6.092;2022-09-09T07:26:33;98932.28;;;19.80;63.05
23953;BME280;12163;49.316;6.092;2022-09-09T07:29:00;98933.09;;;19.80;64.24
23953;BME280;12163;49.316;6.092;2022-09-09T07:31:29;98927.47;;;20.11;64.22
23953;BME280;12163;49.316;6.092;2022-09-09T07:33:59;98923.78;;;20.23;62.92
23953;BME280;12163;49.316;6.092;2022-09-09T07:36:28;98932.06;;;20.26;62.36
23953;BME280;12163;49.316;6.092;2022-09-09T07:39:17;98941.91;;;20.08;63.45
23953;BME280;12163;49.316;6.092;2022-09-09T07:41:46;98932.81;;;20.04;63.10
23953;BME280;12163;49.316;6.092;2022-09-09T07:44:16;98929.31;;;19.88;62.82
23953;BME280;12163;49.316;6.092;2022-09-09T07:46:44;98931.94;;;20.00;63.87
23953;BME280;12163;49.316;6.092;2022-09-09T07:49:12;98925.03;;;20.06;61.86
23953;BME280;12163;49.316;6.092;2022-09-09T07:51:41;98933.47;;;20.17;63.37
23953;BME280;12163;49.316;6.092;2022-09-09T07:54:11;98934.81;;;20.26;62.08
23953;BME280;12163;49.316;6.092;2022-09-09T07:56:39;98950.41;;;20.22;61.44
23953;BME280;12163;49.316;6.092;2022-09-09T07:59:07;98944.19;;;20.06;62.38
23953;BME280;12163;49.316;6.092;2022-09-09T08:01:34;98948.50;;;19.88;62.77
23953;BME280;12163;49.316;6.092;2022-09-09T08:04:05;98946.03;;;19.64;62.77
23953;BME280;12163;49.316;6.092;2022-09-09T08:06:38;98938.69;;;19.68;62.78
23953;BME280;12163;49.316;6.092;2022-09-09T08:09:07;98941.50;;;19.72;61.93
23953;BME280;12163;49.316;6.092;2022-09-09T08:11:34;98939.75;;;19.64;62.04
23953;BME280;12163;49.316;6.092;2022-09-09T08:14:08;98937.31;;;19.59;63.07
23953;BME280;12163;49.316;6.092;2022-09-09T08:16:38;98947.75;;;19.72;62.59
23953;BME280;12163;49.316;6.092;2022-09-09T08:19:05;98944.25;;;19.72;61.68
23953;BME280;12163;49.316;6.092;2022-09-09T08:21:36;98934.44;;;19.71;62.73
23953;BME280;12163;49.316;6.092;2022-09-09T08:24:03;98933.94;;;19.84;61.32
23953;BME280;12163;49.316;6.092;2022-09-09T08:26:33;98930.78;;;19.82;62.30
23953;BME280;12163;49.316;6.092;2022-09-09T08:29:01;98942.31;;;20.10;61.51
23953;BME280;12163;49.316;6.092;2022-09-09T08:31:34;98934.34;;;20.43;61.04
23953;BME280;12163;49.316;6.092;2022-09-09T08:34:01;98927.41;;;20.49;59.08
23953;BME280;12163;49.316;6.092;2022-09-09T08:36:34;98931.22;;;20.22;58.89
23953;BME280;12163;49.316;6.092;2022-09-09T08:39:01;98938.00;;;20.09;59.40
23953;BME280;12163;49.316;6.092;2022-09-09T08:57:50;98938.59;;;21.08;55.47
23953;BME280;12163;49.316;6.092;2022-09-09T09:00:19;98925.75;;;21.12;56.20
23953;BME280;12163;49.316;6.092;2022-09-09T09:03:15;98918.88;;;21.25;54.69
23953;BME280;12163;49.316;6.092;2022-09-09T09:06:04;98923.41;;;21.40;54.97
23953;BME280;12163;49.316;6.092;2022-09-09T09:11:05;98905.59;;;21.56;53.69
23953;BME280;12163;49.316;6.092;2022-09-09T09:13:34;98917.00;;;21.58;53.20
23953;BME280;12163;49.316;6.092;2022-09-09T09:16:34;98928.63;;;21.48;53.94
23953;BME280;12163;49.316;6.092;2022-09-09T09:19:05;98920.44;;;21.52;53.64
23953;BME280;12163;49.316;6.092;2022-09-09T09:21:49;98916.78;;;21.41;53.62
23953;BME280;12163;49.316;6.092;2022-09-09T09:24:25;98916.88;;;21.22;54.14
23953;BME280;12163;49.316;6.092;2022-09-09T09:26:54;98908.88;;;21.10;54.95
23953;BME280;12163;49.316;6.092;2022-09-09T09:29:23;98919.84;;;21.10;54.65
23953;BME280;12163;49.316;6.092;2022-09-09T09:31:53;98917.53;;;21.12;55.05
23953;BME280;12163;49.316;6.092;2022-09-09T09:34:21;98904.13;;;21.33;54.28
23953;BME280;12163;49.316;6.092;2022-09-09T09:36:56;98909.78;;;21.47;54.13
23953;BME280;12163;49.316;6.092;2022-09-09T09:39:27;98907.94;;;21.54;53.37
23953;BME280;12163;49.316;6.092;2022-09-09T09:42:17;98903.97;;;21.52;53.76
23953;BME280;12163;49.316;6.092;2022-09-09T09:44:48;98909.56;;;21.59;53.42
23953;BME280;12163;49.316;6.092;2022-09-09T09:49:56;98913.91;;;21.60;53.54
23953;BME280;12163;49.316;6.092;2022-09-09T09:52:25;98894.66;;;21.60;53.05
23953;BME280;12163;49.316;6.092;2022-09-09T09:54:53;98916.75;;;21.67;52.40
23953;BME280;12163;49.316;6.092;2022-09-09T09:57:24;98931.97;;;21.35;52.93
23953;BME280;12163;49.316;6.092;2022-09-09T10:00:16;98911.06;;;21.27;53.45
23953;BME280;12163;49.316;6.092;2022-09-09T10:02:45;98912.13;;;21.19;53.05
23953;BME280;12163;49.316;6.092;2022-09-09T10:07:40;98918.47;;;21.23;52.44
23953;BME280;12163;49.316;6.092;2022-09-09T10:10:16;98923.28;;;21.29;52.36
23953;BME280;12163;49.316;6.092;2022-09-09T10:13:50;98891.09;;;21.26;52.35
23953;BME280;12163;49.316;6.092;2022-09-09T10:16:06;98906.94;;;21.40;53.19
23953;BME280;12163;49.316;6.092;2022-09-09T10:31:41;98903.25;;;22.17;51.32
23953;BME280;12163;49.316;6.092;2022-09-09T10:34:26;98900.09;;;22.19;50.81
23953;BME280;12163;49.316;6.092;2022-09-09T10:36:59;98897.44;;;22.26;50.56
23953;BME280;12163;49.316;6.092;2022-09-09T10:39:37;98906.22;;;22.02;51.22
23953;BME280;12163;49.316;6.092;2022-09-09T10:42:15;98925.59;;;21.83;53.18
23953;BME280;12163;49.316;6.092;2022-09-09T10:50:18;98969.59;;;19.34;64.66
23953;BME280;12163;49.316;6.092;2022-09-09T10:52:52;98951.34;;;19.07;65.97
23953;BME280;12163;49.316;6.092;2022-09-09T10:55:27;98945.19;;;19.10;67.25
23953;BME280;12163;49.316;6.092;2022-09-09T10:57:57;98935.72;;;19.23;67.22
23953;BME280;12163;49.316;6.092;2022-09-09T11:00:31;98930.00;;;19.47;67.11
23953;BME280;12163;49.316;6.092;2022-09-09T11:03:03;98919.53;;;19.68;67.52
23953;BME280;12163;49.316;6.092;2022-09-09T11:05:37;98924.56;;;19.85;66.73
23953;BME280;12163;49.316;6.092;2022-09-09T11:08:12;98920.38;;;19.91;65.02
23953;BME280;12163;49.316;6.092;2022-09-09T11:13:18;98915.06;;;20.17;64.55
23953;BME280;12163;49.316;6.092;2022-09-09T11:15:50;98905.09;;;20.28;64.66
23953;BME280;12163;49.316;6.092;2022-09-09T11:18:20;98902.16;;;20.40;63.48
23953;BME280;12163;49.316;6.092;2022-09-09T11:20:50;98903.28;;;20.58;63.94
23953;BME280;12163;49.316;6.092;2022-09-09T11:23:42;98896.56;;;20.78;63.42
23953;BME280;12163;49.316;6.092;2022-09-09T11:26:16;98893.09;;;21.03;63.38
23953;BME280;12163;49.316;6.092;2022-09-09T11:32:04;98892.28;;;21.03;60.79
23953;BME280;12163;49.316;6.092;2022-09-09T11:35:01;98898.75;;;21.14;60.65
23953;BME280;12163;49.316;6.092;2022-09-09T11:37:38;98889.34;;;21.15;59.62
23953;BME280;12163;49.316;6.092;2022-09-09T11:40:08;98881.81;;;21.38;60.13
23953;BME280;12163;49.316;6.092;2022-09-09T11:42:40;98872.00;;;21.63;58.29
23953;BME280;12163;49.316;6.092;2022-09-09T11:45:10;98865.63;;;21.88;56.99
23953;BME280;12163;49.316;6.092;2022-09-09T11:47:37;98873.19;;;21.98;55.11
23953;BME280;12163;49.316;6.092;2022-09-09T11:52:44;98879.25;;;21.81;55.05
23953;BME280;12163;49.316;6.092;2022-09-09T11:55:28;98885.34;;;21.64;54.62
23953;BME280;12163;49.316;6.092;2022-09-09T12:00:39;98885.81;;;21.44;54.87
23953;BME280;12163;49.316;6.092;2022-09-09T12:03:45;98874.72;;;21.63;55.13
23953;BME280;12163;49.316;6.092;2022-09-09T12:06:43;98877.63;;;21.73;53.70
23953;BME280;12163;49.316;6.092;2022-09-09T12:11:51;98895.88;;;21.92;51.90
23953;BME280;12163;49.316;6.092;2022-09-09T12:14:34;98883.72;;;21.93;49.57
23953;BME280;12163;49.316;6.092;2022-09-09T12:17:22;98875.44;;;21.89;49.90
23953;BME280;12163;49.316;6.092;2022-09-09T12:20:01;98878.44;;;21.77;50.39
23953;BME280;12163;49.316;6.092;2022-09-09T12:22:46;98882.09;;;21.59;50.43
23953;BME280;12163;49.316;6.092;2022-09-09T12:25:23;98880.25;;;21.37;51.60
23953;BME280;12163;49.316;6.092;2022-09-09T12:30:36;98891.13;;;21.04;53.70
23953;BME280;12163;49.316;6.092;2022-09-09T12:33:12;98892.09;;;20.89;54.70
23953;BME280;12163;49.316;6.092;2022-09-09T12:35:41;98894.34;;;20.83;55.21
23953;BME280;12163;49.316;6.092;2022-09-09T12:38:16;98898.28;;;20.86;55.61
23953;BME280;12163;49.316;6.092;2022-09-09T12:40:55;98890.59;;;20.95;56.11
23953;BME280;12163;49.316;6.092;2022-09-09T12:43:24;98881.16;;;21.18;55.30
23953;BME280;12163;49.316;6.092;2022-09-09T12:45:54;98870.88;;;21.41;53.56
23953;BME280;12163;49.316;6.092;2022-09-09T12:48:36;98868.50;;;21.66;53.54
23953;BME280;12163;49.316;6.092;2022-09-09T12:51:06;98856.13;;;21.82;51.04
23953;BME280;12163;49.316;6.092;2022-09-09T12:53:35;98851.25;;;22.02;49.92
23953;BME280;12163;49.316;6.092;2022-09-09T12:56:07;98839.84;;;22.39;49.59
23953;BME280;12163;49.316;6.092;2022-09-09T12:58:36;98841.69;;;22.72;48.41
23953;BME280;12163;49.316;6.092;2022-09-09T13:01:05;98841.94;;;23.03;47.55
23953;BME280;12163;49.316;6.092;2022-09-09T13:03:33;98830.19;;;23.10;46.43
23953;BME280;12163;49.316;6.092;2022-09-09T13:06:16;98834.94;;;23.13;47.39
23953;BME280;12163;49.316;6.092;2022-09-09T13:08:44;98842.09;;;23.24;46.54
23953;BME280;12163;49.316;6.092;2022-09-09T13:11:15;98839.72;;;23.26;46.24
23953;BME280;12163;49.316;6.092;2022-09-09T13:13:50;98859.34;;;23.18;47.20
23953;BME280;12163;49.316;6.092;2022-09-09T13:16:30;98846.66;;;23.06;46.91
23953;BME280;12163;49.316;6.092;2022-09-09T13:21:35;98845.38;;;22.86;47.59
23953;BME280;12163;49.316;6.092;2022-09-09T13:24:21;98840.59;;;22.83;47.68
23953;BME280;12163;49.316;6.092;2022-09-09T13:26:58;98849.91;;;22.65;48.84
23953;BME280;12163;49.316;6.092;2022-09-09T13:29:26;98855.63;;;22.46;49.34
23953;BME280;12163;49.316;6.092;2022-09-09T13:31:53;98863.19;;;22.20;49.70
23953;BME280;12163;49.316;6.092;2022-09-09T13:34:29;98894.75;;;21.96;53.37
23953;BME280;12163;49.316;6.092;2022-09-09T13:37:00;98893.94;;;21.63;56.68
23953;BME280;12163;49.316;6.092;2022-09-09T13:39:36;98899.34;;;21.04;58.70
23953;BME280;12163;49.316;6.092;2022-09-09T13:42:04;98903.41;;;20.65;59.97
23953;BME280;12163;49.316;6.092;2022-09-09T13:44:36;98896.66;;;20.37;60.81
23953;BME280;12163;49.316;6.092;2022-09-09T13:47:20;98889.53;;;20.13;61.37
23953;BME280;12163;49.316;6.092;2022-09-09T13:49:49;98887.09;;;20.08;62.21
23953;BME280;12163;49.316;6.092;2022-09-09T13:52:17;98874.56;;;20.07;62.35
23953;BME280;12163;49.316;6.092;2022-09-09T13:54:49;98869.34;;;20.44;62.37
23953;BME280;12163;49.316;6.092;2022-09-09T13:57:24;98871.53;;;20.79;61.31
23953;BME280;12163;49.316;6.092;2022-09-09T13:59:53;98868.13;;;20.86;61.63
23953;BME280;12163;49.316;6.092;2022-09-09T14:02:36;98883.69;;;20.82;61.38
23953;BME280;12163;49.316;6.092;2022-09-09T14:05:05;98883.53;;;20.71;61.84
23953;BME280;12163;49.316;6.092;2022-09-09T14:07:31;98882.94;;;20.59;61.26
23953;BME280;12163;49.316;6.092;2022-09-09T14:09:58;98883.47;;;20.46;61.30
23953;BME280;12163;49.316;6.092;2022-09-09T14:12:26;98891.91;;;20.34;61.53
23953;BME280;12163;49.316;6.092;2022-09-09T14:14:53;98878.00;;;20.23;61.75
23953;BME280;12163;49.316;6.092;2022-09-09T14:17:19;98880.59;;;20.16;61.99
23953;BME280;12163;49.316;6.092;2022-09-09T14:19:46;98887.53;;;20.10;61.84
23953;BME280;12163;49.316;6.092;2022-09-09T14:22:13;98877.31;;;20.07;61.50
23953;BME280;12163;49.316;6.092;2022-09-09T14:24:39;98885.94;;;20.09;61.69
23953;BME280;12163;49.316;6.092;2022-09-09T14:27:07;98882.88;;;20.11;61.38
23953;BME280;12163;49.316;6.092;2022-09-09T14:29:33;98880.47;;;20.09;60.95
23953;BME280;12163;49.316;6.092;2022-09-09T14:32:00;98868.38;;;20.10;60.93
23953;BME280;12163;49.316;6.092;2022-09-09T14:34:27;98874.38;;;20.19;61.44
23953;BME280;12163;49.316;6.092;2022-09-09T14:36:54;98870.34;;;20.32;61.03
23953;BME280;12163;49.316;6.092;2022-09-09T14:39:20;98858.69;;;20.61;60.44
23953;BME280;12163;49.316;6.092;2022-09-09T14:41:47;98861.66;;;20.75;59.50
23953;BME280;12163;49.316;6.092;2022-09-09T14:44:13;98872.22;;;20.73;59.77
23953;BME280;12163;49.316;6.092;2022-09-09T14:46:41;98867.47;;;20.70;60.13
23953;BME280;12163;49.316;6.092;2022-09-09T14:49:09;98869.66;;;20.61;60.25
23953;BME280;12163;49.316;6.092;2022-09-09T14:51:36;98871.13;;;20.55;60.64
23953;BME280;12163;49.316;6.092;2022-09-09T14:54:03;98869.13;;;20.52;60.97
23953;BME280;12163;49.316;6.092;2022-09-09T14:56:31;98873.38;;;20.49;61.49
23953;BME280;12163;49.316;6.092;2022-09-09T14:59:01;98879.22;;;20.48;60.79
23953;BME280;12163;49.316;6.092;2022-09-09T15:01:29;98875.66;;;20.44;61.22
23953;BME280;12163;49.316;6.092;2022-09-09T15:03:59;98871.91;;;20.55;60.84
23953;BME280;12163;49.316;6.092;2022-09-09T15:06:27;98865.31;;;20.82;59.43
23953;BME280;12163;49.316;6.092;2022-09-09T15:08:55;98863.31;;;20.79;59.02
23953;BME280;12163;49.316;6.092;2022-09-09T15:11:27;98860.00;;;20.93;59.14
23953;BME280;12163;49.316;6.092;2022-09-09T15:13:54;98865.28;;;21.93;57.66